Aeroporto :
LOGIN :

Iscrizione | Disclaimer

   EN    FR    IT 

 










Sommario :    VFR   VFR Marginale   IFR   IFR Intensivo   IFR Molto Intensivo
Visibilità : 
Base nubi : 
>= 8 km
>= 3000ft
5 / 8 km
1000 / 3000 ft
1500m / 5 km
500 / 1000 ft
800 / 1500m
200 / 500 ft
< 800m
< 200 ft
Simboli :   Temporali  Nebbia  Neve Forte  Precipitazioni Forti  Vento > 20 kt
SIGMETs :   Varie  Temporali  Ghiacco  Turbolenza  Onda orograficha  Ceneri Vulcaniche






- Altitudine del aeroporto : 404 ft
- Codice IATA : WRO


EPWR - Wroclaw

ULTIMO METAR :
  • 111930Z 13010KT 9999 BKN036 04/01 Q1010

METARs OBSOLETI :
  • 111900Z 14010KT 9999 BKN038 04/01 Q1011
  • 111830Z 12009KT 9999 BKN035 04/01 Q1011
  • 111800Z 13007KT 9999 BKN035 04/01 Q1011
  • 111730Z 15005KT 9999 BKN036 05/00 Q1012
  • 111700Z 13005KT 100V200 9999 SCT041 02/M01 Q1012

TAF TAF EPWR
Valido dal 11 a 18 ore il 12 a 18 ore UTC


111730Z 1118/1218 13006KT 9999 BKN020
BECMG 1121/1124 19010KT
BECMG 1206/1209 BKN013
BECMG 1210/1212 VRB02KT
TEMPO 1210/1218 4000 RA BR BKN004 BKN012



MetMap, La meteo Aeronautica in un colpo d'occhio ! - Copyright ORBIFLY Dicembre 2007 - Disclaimer

ORBIFLY MET'MAP TEAM :

Programmazione e sviluppo : Alexandra Zaïnal
Concezione e sviluppo : Baudouin d'Aumeries
Co-Programmazione e sviluppo : Marc-Olivier Méhu
Supporto tecnico e logistico : Manuel Goepfert
Aiuto per la traduzione : Arnaldo La Scala

Contatto : metmap@orbifly.com




FONTI E CREDITI :

   NOAA